Time;durP1;ratioP1;P1;durP2;ratioP2;P2;SDS_P1;SDS_P2;PMS_P1;PMS_P2;Temp;Humidity;BMP_temperature;BMP_pressure;BME280_temperature;BME280_humidity;BME280_pressure;Samples;Min_cycle;Max_cycle;Signal;HPM_P1;HPM_P2
2024/01/27 00:00:03;;;;;;;2.72;0.40;;;;;;;4.15;87.57;149712.47;10634211;27;21366;-71
2024/01/27 00:05:09;;;;;;;1.47;0.33;;;;;;;4.26;85.52;149739.47;10634444;27;20043;-73
2024/01/27 00:10:11;;;;;;;5.00;0.73;;;;;;;4.15;87.45;149712.47;10616613;27;20059;-72
2024/01/27 00:15:12;;;;;;;1.88;0.60;;;;;;;4.05;89.47;149688.06;10616484;27;20043;-71
2024/01/27 00:20:14;;;;;;;4.13;0.73;;;;;;;4.05;90.34;149686.78;10635458;27;20043;-73
2024/01/27 00:25:16;;;;;;;2.40;0.50;;;;;;;3.93;91.18;149657.22;10615137;27;20053;-72
2024/01/27 00:30:18;;;;;;;0.30;0.30;;;;;;;4.11;89.72;149700.91;10634441;27;20110;-72
2024/01/27 00:35:20;;;;;;;3.72;0.50;;;;;;;3.94;91.57;149658.50;10634786;27;20043;-72
2024/01/27 00:40:24;;;;;;;1.63;0.50;;;;;;;3.92;91.36;149653.41;10635285;27;20092;-72
2024/01/27 00:45:27;;;;;;;4.50;0.65;;;;;;;3.84;92.43;149634.13;10635746;27;20047;-72
2024/01/27 00:50:29;;;;;;;1.73;0.43;;;;;;;3.89;91.10;149645.69;10616823;27;20550;-73
2024/01/27 00:55:31;;;;;;;2.75;0.68;;;;;;;3.92;88.61;149654.69;10616611;27;20487;-72
2024/01/27 01:00:32;;;;;;;3.00;0.52;;;;;;;3.84;88.32;149634.13;10615132;27;20396;-71
2024/01/27 01:05:34;;;;;;;1.42;0.50;;;;;;;3.94;87.12;149658.50;10633798;27;20202;-71
2024/01/27 01:10:36;;;;;;;0.50;0.40;;;;;;;3.99;87.36;149672.69;10633959;27;20074;-72
2024/01/27 01:15:39;;;;;;;2.75;0.50;;;;;;;3.84;89.15;149634.13;10633653;27;20103;-73
2024/01/27 01:20:41;;;;;;;2.40;0.82;;;;;;;3.81;89.54;149626.44;10631531;27;20043;-72
2024/01/27 01:25:44;;;;;;;2.45;0.60;;;;;;;3.69;91.31;149596.91;10632718;27;20086;-72
2024/01/27 01:30:45;;;;;;;2.35;0.60;;;;;;;3.71;91.16;149600.72;10632577;27;20068;-72
2024/01/27 01:35:47;;;;;;;4.43;1.20;;;;;;;3.60;91.58;149572.50;10631596;27;20043;-72
2024/01/27 01:40:50;;;;;;;4.18;0.65;;;;;;;3.73;90.77;149607.16;10632185;27;20101;-72
2024/01/27 01:45:53;;;;;;;3.53;1.05;;;;;;;3.75;89.00;149611.00;10613271;27;20047;-72
2024/01/27 01:50:55;;;;;;;2.60;0.47;;;;;;;3.70;88.55;149598.19;10613238;27;20039;-71
2024/01/27 01:55:57;;;;;;;2.42;0.70;;;;;;;3.72;87.10;149603.34;10631521;27;20050;-72
2024/01/27 02:01:03;;;;;;;1.70;0.38;;;;;;;3.66;86.65;149587.91;10612771;27;20118;-72
2024/01/27 02:06:05;;;;;;;2.70;0.55;;;;;;;3.61;87.36;149575.06;10630459;27;20049;-71
2024/01/27 02:11:08;;;;;;;2.30;0.50;;;;;;;3.78;86.56;149618.72;10629177;27;20487;-73
2024/01/27 02:16:09;;;;;;;4.53;0.70;;;;;;;3.67;86.84;149590.44;10629243;27;20491;-71
2024/01/27 02:21:11;;;;;;;1.90;0.50;;;;;;;3.50;87.75;149549.41;10629373;27;20031;-71
2024/01/27 02:26:16;;;;;;;2.17;0.40;;;;;;;3.49;86.72;149546.78;10630353;27;20493;-72
2024/01/27 02:31:18;;;;;;;5.97;0.77;;;;;;;3.60;85.63;149572.50;10628830;27;20043;-73
2024/01/27 02:36:20;;;;;;;2.75;0.95;;;;;;;3.49;86.09;149545.50;10628282;27;20047;-73
2024/01/27 02:41:22;;;;;;;3.55;0.85;;;;;;;3.38;86.48;149518.56;10628362;27;20150;-72
2024/01/27 02:46:24;;;;;;;3.42;0.75;;;;;;;3.50;84.99;149548.13;10628593;27;20505;-73
2024/01/27 02:51:26;;;;;;;2.92;0.60;;;;;;;3.30;86.04;149498.03;10627646;27;20509;-72
2024/01/27 02:56:28;;;;;;;2.50;0.73;;;;;;;3.41;85.56;149524.97;10628386;27;20047;-72
2024/01/27 03:01:29;;;;;;;4.03;0.77;;;;;;;3.26;85.70;149487.75;10628191;27;20046;-72
2024/01/27 03:06:31;;;;;;;5.93;1.00;;;;;;;3.26;84.98;149487.75;10627398;27;20047;-72
2024/01/27 03:11:33;;;;;;;3.78;0.50;;;;;;;3.23;85.11;149480.03;10591981;27;20046;-72
2024/01/27 03:16:35;;;;;;;2.35;0.45;;;;;;;3.26;84.23;149487.75;10627757;27;20499;-72
2024/01/27 03:21:37;;;;;;;5.43;0.75;;;;;;;3.32;83.23;149503.19;10627467;27;20094;-73
2024/01/27 03:26:39;;;;;;;4.75;0.90;;;;;;;3.11;84.64;149450.53;10627252;27;20458;-72
2024/01/27 03:31:41;;;;;;;8.15;1.67;;;;;;;3.22;83.51;149477.47;10627067;27;20444;-73
2024/01/27 03:36:42;;;;;;;5.65;0.73;;;;;;;3.24;83.14;149483.91;10607408;28;20146;-73
2024/01/27 03:41:44;;;;;;;3.70;0.68;;;;;;;3.29;82.87;149495.47;10625647;27;20487;-73
2024/01/27 03:46:47;;;;;;;3.33;0.60;;;;;;;3.30;81.91;149498.03;10626285;28;20043;-72
2024/01/27 03:51:49;;;;;;;2.55;0.68;;;;;;;3.18;82.63;149468.47;10626945;27;20035;-72
2024/01/27 03:56:51;;;;;;;4.82;0.75;;;;;;;3.27;81.61;149491.59;10627393;28;20039;-72
2024/01/27 04:01:53;;;;;;;2.47;0.70;;;;;;;3.19;81.73;149471.09;10626197;27;20074;-72
2024/01/27 04:06:55;;;;;;;2.28;0.60;;;;;;;3.12;81.86;149451.81;10626579;28;20054;-73
2024/01/27 04:11:57;;;;;;;3.58;0.50;;;;;;;3.27;80.20;149490.31;10625576;27;20031;-72
2024/01/27 04:16:59;;;;;;;2.33;0.57;;;;;;;3.36;79.60;149513.41;10626664;28;20046;-72
2024/01/27 04:22:00;;;;;;;1.50;0.38;;;;;;;3.35;79.24;149509.56;10626049;27;20032;-73
2024/01/27 04:27:02;;;;;;;2.88;0.60;;;;;;;3.28;80.75;149492.91;10626546;28;20126;-73
2024/01/27 04:32:04;;;;;;;4.97;0.90;;;;;;;3.32;79.95;149503.19;10626099;27;20043;-73
2024/01/27 04:37:06;;;;;;;2.90;0.70;;;;;;;3.21;80.23;149474.91;10630387;27;20096;-73
2024/01/27 04:42:08;;;;;;;4.03;0.88;;;;;;;2.97;82.06;149415.91;10633456;27;20129;-73
2024/01/27 04:47:10;;;;;;;7.55;0.80;;;;;;;2.91;82.86;149399.19;10633976;27;20452;-73
2024/01/27 04:52:12;;;;;;;2.40;0.80;;;;;;;2.83;83.49;149379.94;10633029;27;20062;-72
2024/01/27 04:57:14;;;;;;;9.77;1.00;;;;;;;2.88;83.58;149392.78;10632933;27;20084;-73
2024/01/27 05:02:15;;;;;;;10.38;0.80;;;;;;;2.74;84.55;149356.81;10633503;27;20035;-73
2024/01/27 05:07:17;;;;;;;2.42;0.60;;;;;;;2.52;85.94;149302.97;10632567;27;20043;-73
2024/01/27 05:12:19;;;;;;;2.45;0.60;;;;;;;2.53;86.26;149304.25;10633134;27;20047;-73
2024/01/27 05:17:21;;;;;;;3.63;0.60;;;;;;;2.74;85.23;149356.81;10631650;27;20039;-74
2024/01/27 05:22:23;;;;;;;5.32;0.60;;;;;;;2.83;85.11;149379.94;10631100;27;20035;-73
2024/01/27 05:27:24;;;;;;;4.18;0.82;;;;;;;2.95;84.38;149410.72;10631612;27;20067;-73
2024/01/27 05:32:26;;;;;;;9.15;0.98;;;;;;;2.95;84.49;149410.72;10632492;27;20440;-73
2024/01/27 05:37:28;;;;;;;1.42;0.70;;;;;;;3.02;84.15;149428.72;10632550;27;20039;-72
2024/01/27 05:42:30;;;;;;;3.80;1.00;;;;;;;2.99;84.43;149419.72;10613006;27;20035;-73
2024/01/27 05:47:32;;;;;;;2.92;0.88;;;;;;;2.98;84.53;149417.16;10631710;27;20398;-74
2024/01/27 05:52:35;;;;;;;3.88;0.80;;;;;;;2.99;84.14;149419.72;10630564;27;20031;-73
2024/01/27 05:57:36;;;;;;;5.90;0.82;;;;;;;3.11;83.18;149450.53;10630462;27;20145;-72
2024/01/27 06:02:38;;;;;;;4.93;1.10;;;;;;;3.15;82.60;149459.53;10630195;27;20039;-74
2024/01/27 06:07:40;;;;;;;5.00;0.80;;;;;;;3.13;83.06;149455.66;10629489;27;20047;-73
2024/01/27 06:12:43;;;;;;;1.85;0.50;;;;;;;3.10;83.57;149446.66;10629430;27;20039;-73
2024/01/27 06:17:44;;;;;;;5.40;1.00;;;;;;;2.99;84.79;149419.72;10630297;27;20043;-73
2024/01/27 06:22:46;;;;;;;7.63;0.82;;;;;;;3.02;84.69;149428.72;10610288;27;20043;-72
2024/01/27 06:27:48;;;;;;;6.75;0.75;;;;;;;3.02;84.54;149428.72;10629224;27;20048;-72
2024/01/27 06:32:50;;;;;;;5.93;1.15;;;;;;;3.09;84.48;149444.09;10629715;27;20084;-73
2024/01/27 06:37:52;;;;;;;3.15;0.60;;;;;;;3.06;84.43;149437.72;10629995;27;20153;-73
2024/01/27 06:42:55;;;;;;;3.70;0.88;;;;;;;3.07;84.72;149439.00;10629523;27;20066;-72
2024/01/27 06:47:56;;;;;;;4.90;0.70;;;;;;;3.12;84.46;149453.09;10628793;27;20040;-73
2024/01/27 06:52:59;;;;;;;2.83;0.73;;;;;;;3.14;84.15;149456.94;10628947;27;20062;-74
2024/01/27 06:58:01;;;;;;;3.22;1.13;;;;;;;3.16;84.13;149463.38;10627174;27;20039;-74
2024/01/27 07:03:03;;;;;;;5.15;0.95;;;;;;;3.24;83.65;149483.91;10627757;27;20039;-72
2024/01/27 07:08:08;;;;;;;2.10;0.60;;;;;;;3.29;83.13;149496.75;10627427;27;20043;-74
2024/01/27 07:13:09;;;;;;;3.05;0.60;;;;;;;3.41;82.81;149524.97;10628727;27;20062;-73
2024/01/27 07:18:11;;;;;;;4.78;0.60;;;;;;;3.38;83.00;149518.56;10609938;27;20039;-72
2024/01/27 07:23:13;;;;;;;2.35;0.80;;;;;;;3.29;83.95;149495.47;10628181;27;20555;-73
2024/01/27 07:28:16;;;;;;;6.63;1.00;;;;;;;3.42;83.07;149528.84;10627047;27;20043;-73
2024/01/27 07:33:17;;;;;;;6.05;1.10;;;;;;;3.54;82.30;149558.34;10608747;28;20452;-73
2024/01/27 07:38:19;;;;;;;3.40;0.85;;;;;;;3.36;83.96;149512.13;10607994;28;20051;-72
2024/01/27 07:43:21;;;;;;;2.90;0.80;;;;;;;3.34;84.57;149508.28;10608810;28;20046;-73
2024/01/27 07:48:23;;;;;;;3.95;0.90;;;;;;;3.44;84.20;149533.97;10626371;28;20058;-73
2024/01/27 07:53:25;;;;;;;3.72;0.60;;;;;;;3.62;82.96;149578.91;10627203;27;20606;-73
2024/01/27 07:58:27;;;;;;;3.45;0.70;;;;;;;3.61;83.90;149575.06;10608604;28;20043;-73
2024/01/27 08:03:29;;;;;;;8.90;1.60;;;;;;;3.71;82.84;149600.72;10626278;27;20051;-74
2024/01/27 08:08:30;;;;;;;5.20;1.40;;;;;;;3.58;84.41;149568.63;10625443;27;20039;-72
2024/01/27 08:13:32;;;;;;;2.40;0.80;;;;;;;3.59;84.69;149569.94;10634665;27;20046;-72
2024/01/27 08:18:34;;;;;;;2.28;1.25;;;;;;;3.72;83.79;149604.63;10633807;27;20082;-73
2024/01/27 08:23:36;;;;;;;6.15;0.98;;;;;;;3.65;84.38;149586.63;10633898;27;20114;-74
2024/01/27 08:28:38;;;;;;;4.35;1.17;;;;;;;3.71;84.97;149602.00;10632497;27;20452;-73
2024/01/27 08:33:40;;;;;;;7.75;1.00;;;;;;;3.81;83.84;149626.44;10633786;27;20050;-72
2024/01/27 08:38:42;;;;;;;5.78;1.00;;;;;;;3.84;83.97;149634.13;10633222;27;20051;-73
2024/01/27 08:43:43;;;;;;;7.05;0.93;;;;;;;3.86;84.63;149638.00;10632562;27;20039;-73
2024/01/27 08:48:45;;;;;;;11.65;1.20;;;;;;;3.78;84.55;149618.72;10633140;27;20054;-73
2024/01/27 08:53:50;;;;;;;6.75;2.03;;;;;;;4.03;83.18;149681.69;10633150;27;20035;-72
2024/01/27 08:58:52;;;;;;;4.47;1.20;;;;;;;3.92;84.09;149653.41;10632103;27;20039;-72
2024/01/27 09:03:55;;;;;;;5.30;1.58;;;;;;;3.93;84.17;149655.97;10632511;27;20100;-72
2024/01/27 09:08:56;;;;;;;5.40;1.45;;;;;;;3.96;83.75;149664.97;10632684;27;20075;-73
2024/01/27 09:13:58;;;;;;;5.93;1.45;;;;;;;4.18;83.12;149720.19;10631661;27;20036;-73
2024/01/27 09:19:00;;;;;;;7.50;1.52;;;;;;;4.10;83.90;149698.34;10631548;27;20039;-73
2024/01/27 09:24:03;;;;;;;3.10;0.80;;;;;;;4.16;83.99;149713.75;10651281;27;20083;-73
2024/01/27 09:29:05;;;;;;;3.08;0.98;;;;;;;4.36;81.95;149765.16;10674647;27;20042;-73
2024/01/27 09:34:06;;;;;;;7.57;1.65;;;;;;;4.32;83.25;149754.88;10655473;27;20042;-73
2024/01/27 09:39:09;;;;;;;3.38;1.25;;;;;;;4.45;82.07;149788.28;10674232;27;20047;-74
2024/01/27 09:44:12;;;;;;;2.45;1.10;;;;;;;4.66;81.46;149840.97;10674271;27;20030;-75
2024/01/27 09:49:14;;;;;;;2.90;0.93;;;;;;;4.88;80.31;149896.25;10674406;27;20062;-73
2024/01/27 09:54:17;;;;;;;9.70;2.15;;;;;;;4.88;79.70;149894.97;10675341;27;20050;-72
2024/01/27 09:59:20;;;;;;;3.50;0.90;;;;;;;4.70;81.46;149850.00;10672675;27;20492;-73
2024/01/27 10:04:25;;;;;;;3.47;1.00;;;;;;;4.67;82.43;149842.25;10671732;27;20038;-72
2024/01/27 10:09:27;;;;;;;8.23;1.27;;;;;;;4.72;82.23;149855.09;10671001;27;20095;-74
2024/01/27 10:14:39;;;;;;;4.32;1.83;;;;;;;4.94;80.98;149910.38;10671412;27;20410;-73
2024/01/27 10:19:41;;;;;;;8.07;1.63;;;;;;;5.02;80.31;149930.97;10670381;27;20043;-73
2024/01/27 10:24:47;;;;;;;6.57;1.10;;;;;;;4.94;81.08;149910.38;10671034;27;20047;-73
2024/01/27 10:29:56;;;;;;;5.63;1.15;;;;;;;5.10;80.66;149951.53;10670708;27;20049;-73
2024/01/27 10:35:08;;;;;;;5.07;1.08;;;;;;;5.22;80.53;149982.41;10670568;27;20482;-73
2024/01/27 10:40:12;;;;;;;7.45;2.10;;;;;;;5.09;81.26;149948.97;10670764;27;20410;-74
2024/01/27 10:45:16;;;;;;;4.45;1.25;;;;;;;5.26;79.47;149991.38;10654096;27;20102;-73
2024/01/27 10:50:17;;;;;;;7.28;1.10;;;;;;;5.19;80.36;149973.41;10670784;27;20068;-73
2024/01/27 10:55:20;;;;;;;7.70;1.40;;;;;;;5.12;79.72;149955.38;10670310;27;20050;-74
2024/01/27 11:00:23;;;;;;;13.25;2.20;;;;;;;5.21;80.21;149978.50;10669337;27;20121;-73
2024/01/27 11:05:28;;;;;;;5.32;1.50;;;;;;;5.50;79.05;150051.84;10669950;27;20039;-74
2024/01/27 11:10:36;;;;;;;4.38;1.23;;;;;;;5.39;78.90;150024.78;10669878;27;20660;-77
2024/01/27 11:15:38;;;;;;;10.25;2.90;;;;;;;5.20;80.20;149977.22;10670005;27;20050;-75
2024/01/27 11:20:44;;;;;;;9.07;1.65;;;;;;;4.97;81.10;149918.13;10669763;27;20035;-75
2024/01/27 11:25:46;;;;;;;4.53;1.50;;;;;;;5.12;80.16;149955.38;10649769;27;20130;-75
2024/01/27 11:30:50;;;;;;;7.03;2.13;;;;;;;5.02;80.84;149930.97;10670194;27;20106;-75
2024/01/27 11:36:03;;;;;;;5.85;2.63;;;;;;;4.95;81.49;149914.22;10670762;27;20494;-75
2024/01/27 11:41:05;;;;;;;10.60;3.22;;;;;;;5.07;81.15;149945.09;10668568;27;20073;-74
2024/01/27 11:46:07;;;;;;;9.80;2.13;;;;;;;5.47;79.12;150044.09;10674286;27;20074;-75
2024/01/27 11:51:11;;;;;;;3.97;1.30;;;;;;;5.85;77.71;150140.59;10660310;27;20073;-73
2024/01/27 11:56:14;;;;;;;3.75;1.50;;;;;;;6.16;75.87;150219.09;10659469;27;20074;-75
2024/01/27 12:01:16;;;;;;;6.75;1.58;;;;;;;6.27;75.32;150246.13;10677472;27;20041;-75
2024/01/27 12:06:18;;;;;;;4.43;1.15;;;;;;;6.02;76.87;150184.38;10677729;27;20062;-76
2024/01/27 12:11:21;;;;;;;6.30;1.23;;;;;;;6.58;73.61;150324.63;10677460;27;20038;-73
2024/01/27 12:16:26;;;;;;;5.43;1.30;;;;;;;6.60;73.43;150329.78;10678734;27;20053;-74
2024/01/27 12:21:28;;;;;;;2.80;1.05;;;;;;;6.60;73.36;150328.47;10658835;27;20088;-75
2024/01/27 12:26:31;;;;;;;5.63;1.60;;;;;;;6.81;71.21;150383.81;10678107;27;20041;-75
2024/01/27 12:31:33;;;;;;;3.95;1.40;;;;;;;6.99;69.63;150427.59;10657938;27;20042;-74
2024/01/27 12:36:41;;;;;;;3.05;1.13;;;;;;;6.75;70.55;150368.38;10677459;27;20050;-75
2024/01/27 12:41:44;;;;;;;5.40;1.58;;;;;;;6.38;71.01;150273.16;10657587;27;20038;-74
2024/01/27 12:46:45;;;;;;;3.97;0.85;;;;;;;6.22;72.44;150234.53;10659224;27;20071;-76
2024/01/27 12:51:48;;;;;;;3.47;1.00;;;;;;;6.43;73.68;150287.31;10676278;27;20358;-74
2024/01/27 12:56:50;;;;;;;7.07;1.63;;;;;;;6.44;72.26;150289.88;10674393;27;20038;-74
2024/01/27 13:01:52;;;;;;;4.90;1.65;;;;;;;6.54;70.63;150315.59;10675745;27;20382;-75
2024/01/27 13:06:54;;;;;;;6.38;1.58;;;;;;;6.30;73.12;150253.84;10675334;27;20043;-74
2024/01/27 13:11:57;;;;;;;7.85;1.30;;;;;;;6.15;72.54;150215.22;10656312;27;20046;-74
2024/01/27 13:17:02;;;;;;;8.20;1.25;;;;;;;6.26;71.15;150244.84;10656401;27;20137;-76
2024/01/27 13:22:05;;;;;;;4.63;1.52;;;;;;;6.45;69.75;150292.44;10675006;27;20045;-74
2024/01/27 13:27:08;;;;;;;3.78;0.90;;;;;;;6.35;70.70;150265.44;10674542;27;20525;-73
2024/01/27 13:32:09;;;;;;;5.15;1.15;;;;;;;6.22;71.57;150234.53;10673993;27;20042;-74
2024/01/27 13:37:11;;;;;;;2.65;1.10;;;;;;;6.27;70.67;150246.13;10656997;27;20047;-75
2024/01/27 13:42:13;;;;;;;3.55;0.80;;;;;;;6.49;69.29;150301.47;10672773;27;20035;-74
2024/01/27 13:47:15;;;;;;;4.25;0.90;;;;;;;6.19;70.93;150225.53;10673907;27;20043;-74
2024/01/27 13:52:17;;;;;;;3.03;0.82;;;;;;;6.19;71.18;150226.81;10673376;27;20035;-74
2024/01/27 13:57:19;;;;;;;3.47;0.90;;;;;;;6.21;70.82;150231.97;10656362;27;20042;-75
2024/01/27 14:02:21;;;;;;;6.43;1.20;;;;;;;6.02;72.16;150183.03;10653945;27;20473;-74
2024/01/27 14:07:27;;;;;;;5.13;1.33;;;;;;;6.05;71.80;150192.06;10676898;27;20042;-75
2024/01/27 14:12:31;;;;;;;5.57;1.10;;;;;;;6.12;72.34;150208.81;10656983;27;20031;-76
2024/01/27 14:17:37;;;;;;;2.75;1.23;;;;;;;6.13;72.10;150210.09;10655367;27;20053;-75
2024/01/27 14:22:39;;;;;;;4.38;1.15;;;;;;;6.04;72.75;150189.50;10672754;27;20041;-75
2024/01/27 14:27:42;;;;;;;8.15;1.00;;;;;;;6.26;71.95;150244.84;10672146;27;20439;-74
2024/01/27 14:32:44;;;;;;;3.58;0.95;;;;;;;6.20;71.49;150229.41;10673123;27;20486;-74
2024/01/27 14:37:46;;;;;;;4.13;0.90;;;;;;;6.03;72.94;150186.94;10671358;27;20043;-75
2024/01/27 14:42:49;;;;;;;2.70;0.80;;;;;;;6.33;71.24;150261.59;10635250;27;20106;-74
2024/01/27 14:47:52;;;;;;;3.88;0.95;;;;;;;5.88;73.35;150147.00;10654231;27;20453;-74
2024/01/27 14:52:58;;;;;;;;;;;;;;;5.79;73.69;150126.41;10654270;27;20070;-75
2024/01/27 14:58:03;;;;;;;4.53;1.17;;;;;;;5.95;73.35;150166.34;10671043;27;19919;-75
2024/01/27 15:03:06;;;;;;;4.18;0.90;;;;;;;5.65;74.85;150089.13;10671776;27;20379;-74
2024/01/27 15:08:08;;;;;;;10.00;6.35;;;;;;;5.57;75.54;150071.09;10652216;27;20095;-74
2024/01/27 15:13:11;;;;;;;3.67;1.35;;;;;;;5.51;76.08;150054.38;10670504;27;20050;-74
2024/01/27 15:18:13;;;;;;;7.72;1.50;;;;;;;5.71;75.19;150105.84;10651650;27;20089;-74
2024/01/27 15:23:14;;;;;;;6.32;1.80;;;;;;;5.47;76.20;150045.38;10652016;27;20046;-74
2024/01/27 15:28:16;;;;;;;3.60;1.77;;;;;;;5.42;76.30;150032.53;10669702;27;20042;-75
2024/01/27 15:33:18;;;;;;;4.57;1.15;;;;;;;5.61;75.55;150078.81;10669611;27;20068;-74
2024/01/27 15:38:20;;;;;;;2.97;1.30;;;;;;;5.42;76.68;150031.25;10670612;27;20070;-74
2024/01/27 15:43:22;;;;;;;6.30;1.60;;;;;;;5.39;76.49;150023.50;10668690;27;20039;-74
2024/01/27 15:48:26;;;;;;;8.43;2.80;;;;;;;5.36;76.89;150017.13;10668847;27;20053;-75
2024/01/27 15:53:29;;;;;;;5.97;3.60;;;;;;;5.27;77.03;149995.25;10669103;27;20039;-74
2024/01/27 15:58:31;;;;;;;6.32;1.58;;;;;;;5.35;76.99;150014.50;10649753;27;20043;-74
2024/01/27 16:03:36;;;;;;;8.40;6.25;;;;;;;5.32;77.36;150008.09;10650141;27;20031;-74
2024/01/27 16:08:38;;;;;;;4.85;3.20;;;;;;;4.96;78.90;149916.84;10668775;27;20089;-74
2024/01/27 16:13:39;;;;;;;6.80;1.23;;;;;;;5.02;78.71;149930.97;10668012;27;20039;-74
2024/01/27 16:18:41;;;;;;;6.03;1.50;;;;;;;4.95;78.47;149914.22;10649862;27;20045;-75
2024/01/27 16:23:44;;;;;;;5.10;1.23;;;;;;;4.88;79.03;149894.97;10669067;27;20115;-76
2024/01/27 16:28:47;;;;;;;3.78;1.48;;;;;;;4.79;79.21;149874.41;10649641;27;20038;-75
2024/01/27 16:33:48;;;;;;;4.32;1.30;;;;;;;4.60;80.40;149824.25;10673338;27;20070;-74
2024/01/27 16:38:52;;;;;;;4.03;1.23;;;;;;;4.59;80.18;149821.69;10675662;27;20046;-74
2024/01/27 16:43:53;;;;;;;7.75;1.40;;;;;;;4.72;79.23;149856.38;10675564;27;20039;-74
2024/01/27 16:48:56;;;;;;;5.72;1.40;;;;;;;4.65;79.66;149838.44;10676703;27;20057;-76
2024/01/27 16:53:58;;;;;;;8.27;1.48;;;;;;;4.70;79.49;149850.00;10676199;27;20042;-75
2024/01/27 16:59:01;;;;;;;5.75;1.17;;;;;;;4.46;80.39;149790.84;10677427;27;20047;-75
2024/01/27 17:04:03;;;;;;;7.47;1.63;;;;;;;4.50;80.39;149801.13;10657857;27;20035;-76
2024/01/27 17:09:06;;;;;;;5.90;1.40;;;;;;;4.41;80.79;149778.00;10657051;27;20047;-74
2024/01/27 17:14:08;;;;;;;7.15;2.05;;;;;;;4.40;81.22;149775.44;10674850;27;20478;-74
2024/01/27 17:19:10;;;;;;;4.22;1.40;;;;;;;4.40;81.30;149775.44;10674042;27;20088;-74
2024/01/27 17:24:12;;;;;;;4.43;1.73;;;;;;;4.34;81.45;149760.03;10655760;27;20394;-73
2024/01/27 17:29:14;;;;;;;8.07;2.08;;;;;;;4.35;81.75;149761.31;10673498;27;20035;-74
2024/01/27 17:34:17;;;;;;;6.05;2.42;;;;;;;4.20;82.82;149725.31;10655796;27;20047;-75
2024/01/27 17:39:21;;;;;;;5.70;1.92;;;;;;;4.20;82.65;149725.31;10655085;27;20414;-74
2024/01/27 17:44:23;;;;;;;6.22;1.77;;;;;;;4.05;83.66;149688.06;10653201;27;20121;-75
2024/01/27 17:49:25;;;;;;;2.65;1.40;;;;;;;3.95;84.30;149661.13;10653904;27;20146;-73
2024/01/27 17:54:28;;;;;;;4.43;1.30;;;;;;;3.97;83.91;149666.25;10673349;27;20038;-74
2024/01/27 17:59:33;;;;;;;5.55;2.50;;;;;;;3.89;84.10;149645.69;10673704;27;20042;-74
2024/01/27 18:04:34;;;;;;;5.60;2.30;;;;;;;4.05;83.86;149688.06;10672568;27;20083;-74
2024/01/27 18:09:36;;;;;;;6.70;2.35;;;;;;;4.12;83.18;149704.78;10654371;27;20129;-74
2024/01/27 18:14:38;;;;;;;5.90;1.70;;;;;;;3.92;83.68;149653.41;10672690;27;20054;-74
2024/01/27 18:19:40;;;;;;;3.15;1.60;;;;;;;4.01;83.37;149677.78;10673090;27;20057;-75
2024/01/27 18:24:42;;;;;;;2.70;1.63;;;;;;;4.01;83.06;149677.78;10653194;27;20043;-75
2024/01/27 18:29:44;;;;;;;5.28;1.63;;;;;;;3.89;83.32;149646.97;10672219;27;20482;-74
2024/01/27 18:34:46;;;;;;;4.60;1.58;;;;;;;3.63;84.65;149581.50;10655129;27;20041;-73
2024/01/27 18:39:48;;;;;;;6.10;1.88;;;;;;;3.48;85.53;149542.97;10671707;27;20039;-74
2024/01/27 18:44:50;;;;;;;6.40;2.17;;;;;;;3.36;86.16;149512.13;10653595;27;20433;-74
2024/01/27 18:49:52;;;;;;;4.50;2.17;;;;;;;3.48;85.92;149542.97;10653491;27;20413;-75
2024/01/27 18:54:54;;;;;;;7.25;2.03;;;;;;;3.56;85.62;149562.22;10651623;27;20074;-74
2024/01/27 18:59:56;;;;;;;5.45;1.52;;;;;;;3.48;85.49;149542.97;10669409;27;20406;-74
2024/01/27 19:04:59;;;;;;;5.28;1.95;;;;;;;3.47;85.00;149541.69;10672616;27;20035;-74
2024/01/27 19:10:01;;;;;;;5.82;1.50;;;;;;;3.38;85.41;149518.56;10674200;27;20042;-76
2024/01/27 19:15:04;;;;;;;4.50;1.25;;;;;;;3.61;84.40;149575.06;10673594;27;20058;-75
2024/01/27 19:20:06;;;;;;;2.75;1.27;;;;;;;3.39;85.05;149521.13;10670918;27;20046;-75
2024/01/27 19:25:08;;;;;;;3.25;1.58;;;;;;;3.52;84.52;149554.50;10651902;27;20514;-76
2024/01/27 19:30:11;;;;;;;4.78;1.67;;;;;;;3.66;83.64;149587.91;10669695;27;20088;-76
2024/01/27 19:35:14;;;;;;;8.00;1.80;;;;;;;3.72;82.85;149603.34;10651368;27;20031;-77
2024/01/27 19:40:16;;;;;;;4.85;1.65;;;;;;;3.79;82.29;149622.56;10670612;27;20054;-76
2024/01/27 19:45:20;;;;;;;4.00;1.30;;;;;;;3.61;82.74;149575.06;10670407;27;20047;-76
2024/01/27 19:50:22;;;;;;;6.57;1.65;;;;;;;3.53;82.91;149555.78;10671213;27;20086;-75
2024/01/27 19:55:24;;;;;;;3.53;1.27;;;;;;;3.59;82.47;149571.22;10653835;27;20109;-74
2024/01/27 20:00:30;;;;;;;7.70;1.52;;;;;;;3.46;83.18;149539.13;10671916;27;20039;-75
2024/01/27 20:05:32;;;;;;;4.70;1.80;;;;;;;3.50;82.74;149549.41;10673119;27;20063;-75
2024/01/27 20:10:34;;;;;;;4.85;1.83;;;;;;;3.21;84.12;149474.91;10680887;27;20102;-75
2024/01/27 20:15:35;;;;;;;6.13;2.22;;;;;;;3.19;84.25;149469.81;10678917;27;20042;-75
2024/01/27 20:20:38;;;;;;;5.72;2.13;;;;;;;3.41;83.00;149526.28;10660390;27;20107;-75
2024/01/27 20:25:39;;;;;;;4.90;1.83;;;;;;;3.33;83.09;149505.75;10660839;27;20125;-75
2024/01/27 20:30:41;;;;;;;2.95;1.52;;;;;;;3.12;83.88;149453.09;10679667;27;20039;-75
2024/01/27 20:35:43;;;;;;;5.05;2.03;;;;;;;2.81;85.88;149374.81;10678690;27;20049;-75
2024/01/27 20:40:45;;;;;;;9.50;1.60;;;;;;;2.82;86.08;149377.38;10678366;27;20557;-76
2024/01/27 20:45:47;;;;;;;5.30;1.63;;;;;;;2.97;85.06;149415.91;10678898;27;20463;-75
2024/01/27 20:50:49;;;;;;;3.60;1.33;;;;;;;2.96;84.99;149412.00;10679936;27;20463;-75
2024/01/27 20:55:51;;;;;;;6.30;2.15;;;;;;;3.18;83.54;149467.19;10679850;27;20063;-74
2024/01/27 21:00:52;;;;;;;10.63;2.47;;;;;;;3.02;83.90;149427.44;10678151;27;20039;-75
2024/01/27 21:05:54;;;;;;;5.32;1.90;;;;;;;3.07;83.93;149439.00;10676813;27;20045;-74
2024/01/27 21:10:56;;;;;;;4.80;1.67;;;;;;;3.10;83.20;149448.00;10676945;27;20053;-74
2024/01/27 21:15:58;;;;;;;3.65;1.60;;;;;;;3.10;83.18;149448.00;10675636;27;20139;-74
2024/01/27 21:21:01;;;;;;;5.60;1.77;;;;;;;3.04;83.51;149433.84;10659723;27;20058;-73
2024/01/27 21:26:03;;;;;;;5.78;2.00;;;;;;;2.88;84.62;149392.78;10677377;27;20117;-74
2024/01/27 21:31:05;;;;;;;11.02;1.90;;;;;;;2.70;85.58;149346.56;10658246;27;20038;-74
2024/01/27 21:36:07;;;;;;;3.35;1.92;;;;;;;2.60;85.83;149322.19;10677381;27;20088;-76
2024/01/27 21:41:08;;;;;;;3.35;1.60;;;;;;;2.48;87.03;149291.44;10676131;27;20039;-74
2024/01/27 21:46:10;;;;;;;4.20;1.92;;;;;;;2.52;86.43;149302.97;10677285;27;20543;-74
2024/01/27 21:51:12;;;;;;;4.57;2.25;;;;;;;2.30;87.00;149246.50;10675493;27;20042;-75
2024/01/27 21:56:14;;;;;;;2.97;1.90;;;;;;;2.51;86.65;149299.09;10675198;27;20047;-75
2024/01/27 22:01:16;;;;;;;4.78;2.10;;;;;;;2.43;86.60;149278.56;10675242;27;20076;-74
2024/01/27 22:06:18;;;;;;;8.88;1.95;;;;;;;2.34;87.68;149255.47;10674937;27;20165;-74
2024/01/27 22:11:20;;;;;;;3.28;1.80;;;;;;;2.47;87.28;149288.84;10673971;27;20042;-75
2024/01/27 22:16:22;;;;;;;11.00;2.33;;;;;;;2.67;85.48;149340.16;10656971;27;20054;-74
2024/01/27 22:21:24;;;;;;;7.47;2.13;;;;;;;2.70;85.52;149346.56;10676277;27;20482;-74
2024/01/27 22:26:26;;;;;;;7.50;2.20;;;;;;;2.81;85.12;149374.81;10675547;27;20046;-74
2024/01/27 22:31:31;;;;;;;7.15;2.15;;;;;;;2.85;84.87;149385.09;10654953;27;20107;-78
2024/01/27 22:36:32;;;;;;;11.23;2.75;;;;;;;2.89;84.34;149394.06;10674819;27;20106;-75
2024/01/27 22:41:35;;;;;;;5.47;2.22;;;;;;;2.70;85.30;149347.88;10674245;27;20121;-74
2024/01/27 22:46:38;;;;;;;2.40;1.60;;;;;;;2.56;85.90;149311.91;10672556;27;20114;-74
2024/01/27 22:51:42;;;;;;;4.60;1.85;;;;;;;2.59;85.70;149319.63;10674045;27;20054;-76
2024/01/27 22:56:44;;;;;;;3.55;2.13;;;;;;;2.26;85.83;149236.28;10653239;27;20054;-75
2024/01/27 23:01:46;;;;;;;3.67;2.03;;;;;;;2.08;87.64;149191.41;10652397;27;20481;-74
2024/01/27 23:06:47;;;;;;;6.18;1.80;;;;;;;1.83;89.17;149127.28;10673792;27;20409;-75
2024/01/27 23:11:50;;;;;;;3.85;2.05;;;;;;;1.84;89.36;149129.81;10670991;27;20064;-74
2024/01/27 23:16:52;;;;;;;8.43;2.42;;;;;;;1.57;90.36;149061.88;10670648;27;20389;-74
2024/01/27 23:21:53;;;;;;;4.43;1.67;;;;;;;1.40;92.09;149019.56;10671025;27;20043;-74